sensor_id;sensor_type;location;lat;lon;timestamp;P1;durP1;ratioP1;P2;durP2;ratioP2
63016;SDS011;50274;45.640;11.756;2022-10-18T00:01:56;32.87;;;21.67;;
63016;SDS011;50274;45.640;11.756;2022-10-18T00:04:22;32.38;;;21.20;;
63016;SDS011;50274;45.640;11.756;2022-10-18T00:06:48;32.38;;;21.40;;
63016;SDS011;50274;45.640;11.756;2022-10-18T00:09:14;33.70;;;21.63;;
63016;SDS011;50274;45.640;11.756;2022-10-18T00:11:40;31.80;;;19.98;;
63016;SDS011;50274;45.640;11.756;2022-10-18T00:14:06;33.65;;;21.23;;
63016;SDS011;50274;45.640;11.756;2022-10-18T00:16:31;32.73;;;20.47;;
63016;SDS011;50274;45.640;11.756;2022-10-18T00:18:57;33.95;;;20.90;;
63016;SDS011;50274;45.640;11.756;2022-10-18T00:21:24;30.23;;;19.80;;
63016;SDS011;50274;45.640;11.756;2022-10-18T00:23:50;30.83;;;20.47;;
63016;SDS011;50274;45.640;11.756;2022-10-18T00:26:18;32.83;;;21.65;;
63016;SDS011;50274;45.640;11.756;2022-10-18T00:28:45;30.58;;;20.02;;
63016;SDS011;50274;45.640;11.756;2022-10-18T00:31:15;30.98;;;20.30;;
63016;SDS011;50274;45.640;11.756;2022-10-18T00:33:42;29.20;;;18.95;;
63016;SDS011;50274;45.640;11.756;2022-10-18T00:36:09;32.20;;;19.83;;
63016;SDS011;50274;45.640;11.756;2022-10-18T00:38:36;31.65;;;20.80;;
63016;SDS011;50274;45.640;11.756;2022-10-18T00:41:03;31.83;;;21.35;;
63016;SDS011;50274;45.640;11.756;2022-10-18T00:43:30;30.05;;;19.75;;
63016;SDS011;50274;45.640;11.756;2022-10-18T00:45:56;32.38;;;19.45;;
63016;SDS011;50274;45.640;11.756;2022-10-18T00:48:22;30.37;;;20.87;;
63016;SDS011;50274;45.640;11.756;2022-10-18T00:50:49;29.27;;;19.45;;
63016;SDS011;50274;45.640;11.756;2022-10-18T00:53:17;28.88;;;19.10;;
63016;SDS011;50274;45.640;11.756;2022-10-18T00:55:45;29.65;;;18.75;;
63016;SDS011;50274;45.640;11.756;2022-10-18T00:58:12;31.20;;;19.23;;
63016;SDS011;50274;45.640;11.756;2022-10-18T01:00:40;28.55;;;19.35;;
63016;SDS011;50274;45.640;11.756;2022-10-18T01:03:06;24.73;;;17.73;;
63016;SDS011;50274;45.640;11.756;2022-10-18T01:05:39;26.92;;;17.23;;
63016;SDS011;50274;45.640;11.756;2022-10-18T01:11:17;26.40;;;17.38;;
63016;SDS011;50274;45.640;11.756;2022-10-18T01:19:30;25.00;;;16.65;;
63016;SDS011;50274;45.640;11.756;2022-10-18T01:22:18;25.47;;;16.50;;
63016;SDS011;50274;45.640;11.756;2022-10-18T01:30:24;26.45;;;18.05;;
63016;SDS011;50274;45.640;11.756;2022-10-18T01:33:45;23.95;;;15.80;;
63016;SDS011;50274;45.640;11.756;2022-10-18T01:36:26;25.53;;;16.90;;
63016;SDS011;50274;45.640;11.756;2022-10-18T01:38:59;26.77;;;16.95;;
63016;SDS011;50274;45.640;11.756;2022-10-18T01:41:29;24.85;;;17.13;;
63016;SDS011;50274;45.640;11.756;2022-10-18T01:43:57;28.15;;;18.27;;
63016;SDS011;50274;45.640;11.756;2022-10-18T01:46:26;25.33;;;17.10;;
63016;SDS011;50274;45.640;11.756;2022-10-18T01:48:52;28.37;;;16.87;;
63016;SDS011;50274;45.640;11.756;2022-10-18T01:51:27;29.40;;;18.73;;
63016;SDS011;50274;45.640;11.756;2022-10-18T01:53:54;26.15;;;16.40;;
63016;SDS011;50274;45.640;11.756;2022-10-18T01:59:05;24.65;;;16.10;;
63016;SDS011;50274;45.640;11.756;2022-10-18T02:01:42;27.23;;;16.90;;
63016;SDS011;50274;45.640;11.756;2022-10-18T02:04:45;27.17;;;16.88;;
63016;SDS011;50274;45.640;11.756;2022-10-18T02:07:22;25.10;;;15.65;;
63016;SDS011;50274;45.640;11.756;2022-10-18T02:10:02;26.88;;;16.52;;
63016;SDS011;50274;45.640;11.756;2022-10-18T02:12:38;22.13;;;14.73;;
63016;SDS011;50274;45.640;11.756;2022-10-18T02:15:07;26.43;;;16.13;;
63016;SDS011;50274;45.640;11.756;2022-10-18T02:17:36;23.80;;;14.95;;
63016;SDS011;50274;45.640;11.756;2022-10-18T02:20:04;27.42;;;17.15;;
63016;SDS011;50274;45.640;11.756;2022-10-18T02:22:32;23.42;;;16.55;;
63016;SDS011;50274;45.640;11.756;2022-10-18T02:25:02;25.92;;;17.38;;
63016;SDS011;50274;45.640;11.756;2022-10-18T02:27:32;24.03;;;15.50;;
63016;SDS011;50274;45.640;11.756;2022-10-18T02:29:57;25.45;;;15.93;;
63016;SDS011;50274;45.640;11.756;2022-10-18T02:32:33;25.33;;;16.90;;
63016;SDS011;50274;45.640;11.756;2022-10-18T02:37:46;25.38;;;15.68;;
63016;SDS011;50274;45.640;11.756;2022-10-18T02:40:14;22.73;;;14.75;;
63016;SDS011;50274;45.640;11.756;2022-10-18T02:42:49;25.38;;;15.73;;
63016;SDS011;50274;45.640;11.756;2022-10-18T02:45:18;26.23;;;15.43;;
63016;SDS011;50274;45.640;11.756;2022-10-18T02:47:44;23.97;;;15.30;;
63016;SDS011;50274;45.640;11.756;2022-10-18T02:50:10;23.95;;;15.60;;
63016;SDS011;50274;45.640;11.756;2022-10-18T02:52:36;23.52;;;14.80;;
63016;SDS011;50274;45.640;11.756;2022-10-18T02:55:02;21.23;;;14.83;;
63016;SDS011;50274;45.640;11.756;2022-10-18T02:57:29;22.52;;;15.15;;
63016;SDS011;50274;45.640;11.756;2022-10-18T02:59:55;25.20;;;15.85;;
63016;SDS011;50274;45.640;11.756;2022-10-18T03:02:21;24.33;;;14.93;;
63016;SDS011;50274;45.640;11.756;2022-10-18T03:04:47;20.90;;;14.17;;
63016;SDS011;50274;45.640;11.756;2022-10-18T03:07:12;24.08;;;14.77;;
63016;SDS011;50274;45.640;11.756;2022-10-18T03:09:38;21.23;;;13.17;;
63016;SDS011;50274;45.640;11.756;2022-10-18T03:12:04;21.87;;;14.63;;
63016;SDS011;50274;45.640;11.756;2022-10-18T03:14:30;23.38;;;14.25;;
63016;SDS011;50274;45.640;11.756;2022-10-18T03:16:56;22.38;;;14.82;;
63016;SDS011;50274;45.640;11.756;2022-10-18T03:19:22;22.10;;;14.23;;
63016;SDS011;50274;45.640;11.756;2022-10-18T03:21:48;23.92;;;15.15;;
63016;SDS011;50274;45.640;11.756;2022-10-18T03:24:13;21.85;;;14.65;;
63016;SDS011;50274;45.640;11.756;2022-10-18T03:26:39;21.27;;;14.43;;
63016;SDS011;50274;45.640;11.756;2022-10-18T03:29:05;21.98;;;13.45;;
63016;SDS011;50274;45.640;11.756;2022-10-18T03:31:31;22.33;;;13.97;;
63016;SDS011;50274;45.640;11.756;2022-10-18T03:33:58;24.60;;;14.85;;
63016;SDS011;50274;45.640;11.756;2022-10-18T03:36:23;22.83;;;14.48;;
63016;SDS011;50274;45.640;11.756;2022-10-18T03:38:49;25.33;;;15.80;;
63016;SDS011;50274;45.640;11.756;2022-10-18T03:41:15;22.43;;;15.20;;
63016;SDS011;50274;45.640;11.756;2022-10-18T03:43:41;24.42;;;15.30;;
63016;SDS011;50274;45.640;11.756;2022-10-18T03:46:07;25.15;;;15.50;;
63016;SDS011;50274;45.640;11.756;2022-10-18T03:48:33;24.37;;;15.17;;
63016;SDS011;50274;45.640;11.756;2022-10-18T03:50:58;22.92;;;15.27;;
63016;SDS011;50274;45.640;11.756;2022-10-18T03:53:24;23.87;;;14.43;;
63016;SDS011;50274;45.640;11.756;2022-10-18T03:55:53;20.53;;;13.63;;
63016;SDS011;50274;45.640;11.756;2022-10-18T03:58:20;24.08;;;14.70;;
63016;SDS011;50274;45.640;11.756;2022-10-18T04:00:49;23.10;;;14.88;;
63016;SDS011;50274;45.640;11.756;2022-10-18T04:03:16;23.17;;;15.95;;
63016;SDS011;50274;45.640;11.756;2022-10-18T04:05:43;22.10;;;15.07;;
63016;SDS011;50274;45.640;11.756;2022-10-18T04:08:10;25.55;;;15.10;;
63016;SDS011;50274;45.640;11.756;2022-10-18T04:10:37;24.17;;;15.45;;
63016;SDS011;50274;45.640;11.756;2022-10-18T04:13:03;21.05;;;14.02;;
63016;SDS011;50274;45.640;11.756;2022-10-18T04:15:29;22.15;;;15.05;;
63016;SDS011;50274;45.640;11.756;2022-10-18T04:17:55;22.10;;;14.23;;
63016;SDS011;50274;45.640;11.756;2022-10-18T04:20:21;24.45;;;14.68;;
63016;SDS011;50274;45.640;11.756;2022-10-18T04:22:48;24.75;;;14.98;;
63016;SDS011;50274;45.640;11.756;2022-10-18T04:25:14;22.50;;;13.77;;
63016;SDS011;50274;45.640;11.756;2022-10-18T04:27:40;21.80;;;14.57;;
63016;SDS011;50274;45.640;11.756;2022-10-18T04:30:06;21.92;;;14.20;;
63016;SDS011;50274;45.640;11.756;2022-10-18T04:32:32;23.48;;;14.00;;
63016;SDS011;50274;45.640;11.756;2022-10-18T04:35:00;22.65;;;14.38;;
63016;SDS011;50274;45.640;11.756;2022-10-18T04:37:26;20.90;;;13.77;;
63016;SDS011;50274;45.640;11.756;2022-10-18T04:39:52;21.77;;;13.40;;
63016;SDS011;50274;45.640;11.756;2022-10-18T04:42:18;22.90;;;14.85;;
63016;SDS011;50274;45.640;11.756;2022-10-18T04:44:44;21.63;;;14.47;;
63016;SDS011;50274;45.640;11.756;2022-10-18T04:47:10;23.73;;;14.68;;
63016;SDS011;50274;45.640;11.756;2022-10-18T04:49:36;23.00;;;14.32;;
63016;SDS011;50274;45.640;11.756;2022-10-18T04:52:02;21.67;;;13.27;;
63016;SDS011;50274;45.640;11.756;2022-10-18T04:54:28;20.53;;;13.03;;
63016;SDS011;50274;45.640;11.756;2022-10-18T04:56:53;21.95;;;12.85;;
63016;SDS011;50274;45.640;11.756;2022-10-18T04:59:19;21.95;;;12.93;;
63016;SDS011;50274;45.640;11.756;2022-10-18T05:01:45;20.85;;;13.50;;
63016;SDS011;50274;45.640;11.756;2022-10-18T05:04:11;21.90;;;13.87;;
63016;SDS011;50274;45.640;11.756;2022-10-18T05:06:37;22.75;;;14.40;;
63016;SDS011;50274;45.640;11.756;2022-10-18T05:09:04;19.73;;;13.18;;
63016;SDS011;50274;45.640;11.756;2022-10-18T05:11:30;21.25;;;13.40;;
63016;SDS011;50274;45.640;11.756;2022-10-18T05:13:56;21.93;;;12.87;;
63016;SDS011;50274;45.640;11.756;2022-10-18T05:16:22;21.02;;;13.52;;
63016;SDS011;50274;45.640;11.756;2022-10-18T05:18:48;21.25;;;13.00;;
63016;SDS011;50274;45.640;11.756;2022-10-18T05:21:14;22.40;;;13.27;;
63016;SDS011;50274;45.640;11.756;2022-10-18T05:23:40;20.05;;;13.15;;
63016;SDS011;50274;45.640;11.756;2022-10-18T05:26:06;23.45;;;14.75;;
63016;SDS011;50274;45.640;11.756;2022-10-18T05:28:32;21.23;;;13.15;;
63016;SDS011;50274;45.640;11.756;2022-10-18T05:31:00;20.58;;;13.30;;
63016;SDS011;50274;45.640;11.756;2022-10-18T05:33:27;21.83;;;14.60;;
63016;SDS011;50274;45.640;11.756;2022-10-18T05:35:53;19.20;;;12.80;;
63016;SDS011;50274;45.640;11.756;2022-10-18T05:38:19;20.67;;;13.52;;
63016;SDS011;50274;45.640;11.756;2022-10-18T05:40:45;22.73;;;13.60;;
63016;SDS011;50274;45.640;11.756;2022-10-18T05:43:11;21.80;;;13.20;;
63016;SDS011;50274;45.640;11.756;2022-10-18T05:45:36;22.67;;;13.68;;
63016;SDS011;50274;45.640;11.756;2022-10-18T05:48:02;23.50;;;13.82;;
63016;SDS011;50274;45.640;11.756;2022-10-18T05:50:29;22.33;;;14.63;;
63016;SDS011;50274;45.640;11.756;2022-10-18T05:52:55;24.77;;;14.88;;
63016;SDS011;50274;45.640;11.756;2022-10-18T05:55:22;24.77;;;13.35;;
63016;SDS011;50274;45.640;11.756;2022-10-18T05:57:48;19.85;;;13.73;;
63016;SDS011;50274;45.640;11.756;2022-10-18T06:00:15;22.30;;;13.20;;
63016;SDS011;50274;45.640;11.756;2022-10-18T06:02:41;20.07;;;12.80;;
63016;SDS011;50274;45.640;11.756;2022-10-18T06:05:07;21.75;;;13.10;;
63016;SDS011;50274;45.640;11.756;2022-10-18T06:07:33;22.75;;;13.23;;
63016;SDS011;50274;45.640;11.756;2022-10-18T06:09:59;24.33;;;13.93;;
63016;SDS011;50274;45.640;11.756;2022-10-18T06:12:25;21.33;;;13.10;;
63016;SDS011;50274;45.640;11.756;2022-10-18T06:14:50;24.85;;;13.73;;
63016;SDS011;50274;45.640;11.756;2022-10-18T06:17:16;22.33;;;14.13;;
63016;SDS011;50274;45.640;11.756;2022-10-18T06:19:42;21.95;;;13.20;;
63016;SDS011;50274;45.640;11.756;2022-10-18T06:22:09;26.58;;;14.75;;
63016;SDS011;50274;45.640;11.756;2022-10-18T06:24:35;22.08;;;14.02;;
63016;SDS011;50274;45.640;11.756;2022-10-18T06:27:01;24.53;;;13.23;;
63016;SDS011;50274;45.640;11.756;2022-10-18T06:29:33;24.00;;;14.23;;
63016;SDS011;50274;45.640;11.756;2022-10-18T06:32:03;21.75;;;13.75;;
63016;SDS011;50274;45.640;11.756;2022-10-18T06:34:30;23.55;;;14.35;;
63016;SDS011;50274;45.640;11.756;2022-10-18T06:36:55;22.63;;;12.83;;
63016;SDS011;50274;45.640;11.756;2022-10-18T06:39:21;20.17;;;12.88;;
63016;SDS011;50274;45.640;11.756;2022-10-18T06:41:47;21.70;;;13.82;;
63016;SDS011;50274;45.640;11.756;2022-10-18T06:44:13;23.33;;;14.43;;
63016;SDS011;50274;45.640;11.756;2022-10-18T06:46:42;20.83;;;13.05;;
63016;SDS011;50274;45.640;11.756;2022-10-18T06:49:10;22.63;;;14.15;;
63016;SDS011;50274;45.640;11.756;2022-10-18T06:51:36;24.80;;;14.90;;
63016;SDS011;50274;45.640;11.756;2022-10-18T06:54:02;19.75;;;12.63;;
63016;SDS011;50274;45.640;11.756;2022-10-18T06:56:28;23.00;;;14.32;;
63016;SDS011;50274;45.640;11.756;2022-10-18T06:58:54;23.85;;;13.45;;
63016;SDS011;50274;45.640;11.756;2022-10-18T07:01:20;26.50;;;14.73;;
63016;SDS011;50274;45.640;11.756;2022-10-18T07:03:46;21.40;;;14.27;;
63016;SDS011;50274;45.640;11.756;2022-10-18T07:06:16;24.13;;;15.23;;
63016;SDS011;50274;45.640;11.756;2022-10-18T07:08:43;25.38;;;15.45;;
63016;SDS011;50274;45.640;11.756;2022-10-18T07:11:13;24.63;;;15.40;;
63016;SDS011;50274;45.640;11.756;2022-10-18T07:13:49;27.10;;;15.80;;
63016;SDS011;50274;45.640;11.756;2022-10-18T07:16:18;23.45;;;14.35;;
63016;SDS011;50274;45.640;11.756;2022-10-18T07:18:47;27.25;;;14.98;;
63016;SDS011;50274;45.640;11.756;2022-10-18T07:21:14;22.30;;;14.20;;
63016;SDS011;50274;45.640;11.756;2022-10-18T07:23:42;21.80;;;13.67;;
63016;SDS011;50274;45.640;11.756;2022-10-18T07:26:52;23.48;;;13.43;;
63016;SDS011;50274;45.640;11.756;2022-10-18T07:31:25;26.08;;;15.55;;
63016;SDS011;50274;45.640;11.756;2022-10-18T07:33:51;27.27;;;16.20;;
63016;SDS011;50274;45.640;11.756;2022-10-18T07:36:19;23.93;;;14.87;;
63016;SDS011;50274;45.640;11.756;2022-10-18T07:38:46;27.65;;;15.48;;
63016;SDS011;50274;45.640;11.756;2022-10-18T07:41:12;30.88;;;17.50;;
63016;SDS011;50274;45.640;11.756;2022-10-18T07:43:42;30.70;;;17.58;;
63016;SDS011;50274;45.640;11.756;2022-10-18T07:46:10;31.83;;;17.50;;
63016;SDS011;50274;45.640;11.756;2022-10-18T07:48:36;34.37;;;17.73;;
63016;SDS011;50274;45.640;11.756;2022-10-18T07:51:02;38.65;;;18.25;;
63016;SDS011;50274;45.640;11.756;2022-10-18T07:53:28;28.63;;;17.50;;
63016;SDS011;50274;45.640;11.756;2022-10-18T07:55:58;28.40;;;17.45;;
63016;SDS011;50274;45.640;11.756;2022-10-18T07:58:29;32.13;;;19.93;;
63016;SDS011;50274;45.640;11.756;2022-10-18T08:00:56;34.70;;;20.80;;
63016;SDS011;50274;45.640;11.756;2022-10-18T08:03:22;36.13;;;21.92;;
63016;SDS011;50274;45.640;11.756;2022-10-18T08:05:53;35.33;;;21.37;;
63016;SDS011;50274;45.640;11.756;2022-10-18T08:08:20;36.95;;;21.05;;
63016;SDS011;50274;45.640;11.756;2022-10-18T08:10:48;38.40;;;21.02;;
63016;SDS011;50274;45.640;11.756;2022-10-18T08:13:15;37.83;;;22.58;;
63016;SDS011;50274;45.640;11.756;2022-10-18T08:15:41;45.45;;;24.23;;
63016;SDS011;50274;45.640;11.756;2022-10-18T08:18:07;35.97;;;22.43;;
63016;SDS011;50274;45.640;11.756;2022-10-18T08:20:33;41.33;;;23.73;;
63016;SDS011;50274;45.640;11.756;2022-10-18T08:23:01;38.88;;;23.08;;
63016;SDS011;50274;45.640;11.756;2022-10-18T08:25:27;33.05;;;21.63;;
63016;SDS011;50274;45.640;11.756;2022-10-18T08:27:53;38.30;;;21.93;;
63016;SDS011;50274;45.640;11.756;2022-10-18T08:30:19;38.95;;;23.40;;
63016;SDS011;50274;45.640;11.756;2022-10-18T08:32:47;36.38;;;21.73;;
63016;SDS011;50274;45.640;11.756;2022-10-18T08:35:13;34.67;;;20.93;;
63016;SDS011;50274;45.640;11.756;2022-10-18T08:37:39;36.70;;;21.52;;
63016;SDS011;50274;45.640;11.756;2022-10-18T08:40:06;31.48;;;19.77;;
63016;SDS011;50274;45.640;11.756;2022-10-18T08:45:28;30.70;;;19.85;;
63016;SDS011;50274;45.640;11.756;2022-10-18T08:48:00;27.67;;;16.85;;
63016;SDS011;50274;45.640;11.756;2022-10-18T08:50:32;26.02;;;16.27;;
63016;SDS011;50274;45.640;11.756;2022-10-18T08:53:12;25.90;;;16.38;;
63016;SDS011;50274;45.640;11.756;2022-10-18T08:55:56;28.03;;;16.23;;
63016;SDS011;50274;45.640;11.756;2022-10-18T08:58:28;28.92;;;17.67;;
63016;SDS011;50274;45.640;11.756;2022-10-18T09:09:17;29.53;;;17.87;;
63016;SDS011;50274;45.640;11.756;2022-10-18T09:15:09;29.38;;;17.80;;
63016;SDS011;50274;45.640;11.756;2022-10-18T09:18:23;27.88;;;16.50;;
63016;SDS011;50274;45.640;11.756;2022-10-18T09:23:24;27.57;;;16.90;;
63016;SDS011;50274;45.640;11.756;2022-10-18T09:26:00;23.88;;;15.50;;
63016;SDS011;50274;45.640;11.756;2022-10-18T09:28:39;29.17;;;17.48;;
63016;SDS011;50274;45.640;11.756;2022-10-18T09:33:52;28.10;;;18.40;;
63016;SDS011;50274;45.640;11.756;2022-10-18T09:36:30;24.20;;;15.93;;
63016;SDS011;50274;45.640;11.756;2022-10-18T09:39:19;29.98;;;16.65;;
63016;SDS011;50274;45.640;11.756;2022-10-18T09:41:53;26.20;;;17.00;;
63016;SDS011;50274;45.640;11.756;2022-10-18T09:44:40;30.60;;;18.67;;
63016;SDS011;50274;45.640;11.756;2022-10-18T09:47:20;26.48;;;16.45;;
63016;SDS011;50274;45.640;11.756;2022-10-18T09:49:55;30.75;;;17.40;;
63016;SDS011;50274;45.640;11.756;2022-10-18T09:52:30;28.30;;;17.63;;
63016;SDS011;50274;45.640;11.756;2022-10-18T09:55:07;27.85;;;17.90;;
63016;SDS011;50274;45.640;11.756;2022-10-18T09:57:41;30.40;;;17.77;;
63016;SDS011;50274;45.640;11.756;2022-10-18T10:00:14;29.48;;;18.77;;
63016;SDS011;50274;45.640;11.756;2022-10-18T10:02:53;26.48;;;17.23;;
63016;SDS011;50274;45.640;11.756;2022-10-18T10:05:19;25.13;;;17.38;;
63016;SDS011;50274;45.640;11.756;2022-10-18T10:07:45;27.17;;;16.90;;
63016;SDS011;50274;45.640;11.756;2022-10-18T10:10:13;27.65;;;17.88;;
63016;SDS011;50274;45.640;11.756;2022-10-18T10:12:44;24.80;;;16.85;;
63016;SDS011;50274;45.640;11.756;2022-10-18T10:15:25;27.58;;;17.85;;
63016;SDS011;50274;45.640;11.756;2022-10-18T10:20:24;28.77;;;16.80;;
63016;SDS011;50274;45.640;11.756;2022-10-18T10:22:52;26.88;;;19.05;;
63016;SDS011;50274;45.640;11.756;2022-10-18T10:28:22;28.48;;;18.42;;
63016;SDS011;50274;45.640;11.756;2022-10-18T10:31:05;26.23;;;17.85;;
63016;SDS011;50274;45.640;11.756;2022-10-18T10:34:16;27.00;;;16.77;;
63016;SDS011;50274;45.640;11.756;2022-10-18T10:39:15;25.73;;;17.08;;
63016;SDS011;50274;45.640;11.756;2022-10-18T10:41:48;25.80;;;17.20;;
63016;SDS011;50274;45.640;11.756;2022-10-18T10:44:17;24.55;;;17.27;;
63016;SDS011;50274;45.640;11.756;2022-10-18T10:46:48;25.33;;;16.40;;
63016;SDS011;50274;45.640;11.756;2022-10-18T10:49:17;23.75;;;17.25;;
63016;SDS011;50274;45.640;11.756;2022-10-18T10:51:59;26.27;;;17.65;;
63016;SDS011;50274;45.640;11.756;2022-10-18T10:54:27;26.73;;;18.35;;
63016;SDS011;50274;45.640;11.756;2022-10-18T10:57:00;24.05;;;16.92;;
63016;SDS011;50274;45.640;11.756;2022-10-18T10:59:29;24.17;;;16.83;;
63016;SDS011;50274;45.640;11.756;2022-10-18T11:02:48;25.50;;;15.90;;
63016;SDS011;50274;45.640;11.756;2022-10-18T11:08:01;35.20;;;17.65;;
63016;SDS011;50274;45.640;11.756;2022-10-18T11:10:29;27.70;;;17.33;;
63016;SDS011;50274;45.640;11.756;2022-10-18T11:13:02;28.30;;;18.77;;
63016;SDS011;50274;45.640;11.756;2022-10-18T11:15:51;25.08;;;17.85;;
63016;SDS011;50274;45.640;11.756;2022-10-18T11:18:34;26.63;;;16.35;;
63016;SDS011;50274;45.640;11.756;2022-10-18T11:21:06;27.98;;;17.65;;
63016;SDS011;50274;45.640;11.756;2022-10-18T11:23:48;26.40;;;17.33;;
63016;SDS011;50274;45.640;11.756;2022-10-18T11:26:23;27.63;;;17.83;;
63016;SDS011;50274;45.640;11.756;2022-10-18T11:31:54;26.23;;;16.73;;
63016;SDS011;50274;45.640;11.756;2022-10-18T11:34:39;27.33;;;18.88;;
63016;SDS011;50274;45.640;11.756;2022-10-18T11:42:53;25.73;;;16.20;;
63016;SDS011;50274;45.640;11.756;2022-10-18T11:48:36;24.83;;;15.13;;
63016;SDS011;50274;45.640;11.756;2022-10-18T11:57:16;27.23;;;16.92;;
63016;SDS011;50274;45.640;11.756;2022-10-18T12:05:21;23.48;;;14.77;;
63016;SDS011;50274;45.640;11.756;2022-10-18T12:07:51;27.93;;;17.67;;
63016;SDS011;50274;45.640;11.756;2022-10-18T12:10:22;25.05;;;17.75;;
63016;SDS011;50274;45.640;11.756;2022-10-18T12:12:51;22.80;;;14.82;;
63016;SDS011;50274;45.640;11.756;2022-10-18T12:15:26;26.10;;;16.83;;
63016;SDS011;50274;45.640;11.756;2022-10-18T12:17:55;27.13;;;18.75;;
63016;SDS011;50274;45.640;11.756;2022-10-18T12:20:34;24.90;;;16.63;;
63016;SDS011;50274;45.640;11.756;2022-10-18T12:26:02;27.92;;;19.05;;
63016;SDS011;50274;45.640;11.756;2022-10-18T12:34:05;25.40;;;17.57;;
63016;SDS011;50274;45.640;11.756;2022-10-18T12:39:58;24.10;;;17.52;;
63016;SDS011;50274;45.640;11.756;2022-10-18T12:42:30;27.55;;;17.73;;
63016;SDS011;50274;45.640;11.756;2022-10-18T12:45:22;25.60;;;17.75;;
63016;SDS011;50274;45.640;11.756;2022-10-18T12:47:48;29.57;;;18.50;;
63016;SDS011;50274;45.640;11.756;2022-10-18T12:50:28;27.13;;;18.10;;
63016;SDS011;50274;45.640;11.756;2022-10-18T12:53:06;28.48;;;16.67;;
63016;SDS011;50274;45.640;11.756;2022-10-18T12:55:39;27.42;;;18.67;;
63016;SDS011;50274;45.640;11.756;2022-10-18T13:08:47;24.15;;;16.77;;
